Time;durP1;ratioP1;P1;durP2;ratioP2;P2;SDS_P1;SDS_P2;PMS_P1;PMS_P2;Temp;Humidity;BMP_temperature;BMP_pressure;BME280_temperature;BME280_humidity;BME280_pressure;Samples;Min_cycle;Max_cycle;Signal;HPM_P1;HPM_P2
2023/11/16 00:00:17;;;;;;;0.40;0.40;;;20.30;60.20;;;19.22;49.19;95022.44;5034510;28;20284;-61
2023/11/16 00:02:45;;;;;;;0.50;0.50;;;20.30;60.20;;;19.22;49.49;95027.75;5052549;28;20220;-63
2023/11/16 00:05:16;;;;;;;0.40;0.40;;;20.30;60.20;;;19.21;49.12;95021.59;5052487;28;20599;-62
2023/11/16 00:07:47;;;;;;;0.50;0.50;;;20.30;60.20;;;19.20;49.29;95020.81;5051376;28;20242;-60
2023/11/16 00:10:19;;;;;;;0.50;0.50;;;20.30;60.20;;;19.18;49.33;95025.56;5051425;28;20194;-61
2023/11/16 00:12:47;;;;;;;0.40;0.40;;;20.30;60.20;;;19.18;49.15;95025.56;5052237;28;20207;-61
2023/11/16 00:15:15;;;;;;;0.40;0.40;;;20.30;60.20;;;19.10;49.10;95011.88;5034987;28;20679;-62
2023/11/16 00:17:43;;;;;;;0.50;0.50;;;20.30;60.20;;;19.16;49.08;95019.69;5034852;28;20213;-61
2023/11/16 00:20:10;;;;;;;0.47;0.47;;;20.30;60.20;;;19.16;49.18;95017.03;5050940;28;20588;-61
2023/11/16 00:22:38;;;;;;;0.50;0.50;;;20.30;60.20;;;19.17;49.35;95018.63;5067991;28;20196;-61
2023/11/16 00:25:07;;;;;;;0.40;0.40;;;20.30;60.30;;;19.16;49.44;95016.22;5051187;28;20244;-61
2023/11/16 00:27:35;;;;;;;0.47;0.47;;;20.30;60.20;;;19.14;49.27;95011.16;5051160;28;20196;-60
2023/11/16 00:30:06;;;;;;;0.45;0.45;;;20.30;60.20;;;19.12;49.19;95007.91;5034627;28;20215;-61
2023/11/16 00:32:34;;;;;;;0.50;0.50;;;20.20;60.10;;;19.13;49.06;95008.75;5051490;28;20196;-61
2023/11/16 00:35:02;;;;;;;0.40;0.40;;;20.30;60.20;;;19.11;49.35;95008.97;5050870;28;20212;-61
2023/11/16 00:37:30;;;;;;;0.47;0.47;;;20.20;60.10;;;19.09;49.43;95019.06;5034879;28;20208;-61
2023/11/16 00:39:59;;;;;;;0.43;0.43;;;20.20;60.10;;;19.10;49.32;95009.22;5051459;28;20206;-62
2023/11/16 00:42:28;;;;;;;0.47;0.47;;;20.20;60.20;;;19.08;49.26;95006.81;5034796;28;20188;-61
2023/11/16 00:44:56;;;;;;;0.30;0.30;;;20.20;60.20;;;19.06;49.07;95006.25;5034988;28;20252;-61
2023/11/16 00:47:24;;;;;;;0.50;0.50;;;20.20;60.20;;;19.07;49.26;95012.38;5050997;28;20212;-61
2023/11/16 00:49:52;;;;;;;0.40;0.40;;;20.20;60.10;;;19.07;49.48;95020.34;5052798;28;20211;-62
2023/11/16 00:52:20;;;;;;;0.40;0.40;;;20.20;60.10;;;18.99;49.57;95003.75;5054659;28;20199;-61
2023/11/16 00:54:48;;;;;;;0.40;0.40;;;20.20;60.10;;;19.04;48.89;95024.28;5054793;28;20323;-62
2023/11/16 00:57:20;;;;;;;0.50;0.50;;;20.20;60.20;;;19.03;49.30;95023.47;5038182;28;20208;-62
2023/11/16 00:59:48;;;;;;;0.50;0.50;;;20.20;60.10;;;19.02;49.21;95019.22;5056259;28;20235;-60
2023/11/16 01:02:15;;;;;;;0.40;0.40;;;20.20;60.20;;;18.96;49.36;95011.41;5054752;28;20200;-61
2023/11/16 01:04:43;;;;;;;0.47;0.47;;;20.10;60.10;;;18.99;49.35;95013.56;5054678;28;20225;-61
2023/11/16 01:07:12;;;;;;;0.50;0.50;;;20.20;60.10;;;19.01;49.44;95019.47;5054627;28;20205;-61
2023/11/16 01:09:39;;;;;;;0.50;0.50;;;20.20;60.20;;;19.00;48.88;95020.50;5054499;28;20228;-60
2023/11/16 01:12:14;;;;;;;0.50;0.50;;;20.10;60.10;;;18.97;49.06;95008.50;5054460;28;20195;-62
2023/11/16 01:14:44;;;;;;;0.40;0.40;;;20.10;60.00;;;18.98;49.50;95011.94;5055937;28;20200;-63
2023/11/16 01:17:18;;;;;;;0.40;0.40;;;20.10;60.10;;;18.96;49.13;95017.53;5055091;28;20230;-60
2023/11/16 01:19:47;;;;;;;0.40;0.40;;;20.10;60.00;;;18.95;48.90;95013.25;5037843;28;20221;-62
2023/11/16 01:22:16;;;;;;;0.30;0.30;;;20.10;60.10;;;18.95;49.22;95010.59;5053917;28;20215;-61
2023/11/16 01:24:45;;;;;;;0.50;0.50;;;20.10;60.10;;;18.94;49.19;95014.28;5037745;28;20591;-62
2023/11/16 01:27:18;;;;;;;0.40;0.40;;;20.10;60.10;;;18.91;49.13;95011.28;5054183;28;20209;-62
2023/11/16 01:29:46;;;;;;;0.40;0.40;;;20.10;60.20;;;18.93;49.20;95019.84;5070730;28;20571;-62
2023/11/16 01:32:14;;;;;;;0.50;0.50;;;20.10;60.10;;;18.93;49.58;95020.69;5053762;28;20712;-62
2023/11/16 01:34:42;;;;;;;0.50;0.50;;;20.10;60.20;;;18.92;49.38;95011.09;5037606;28;20218;-61
2023/11/16 01:37:11;;;;;;;0.40;0.40;;;20.10;60.10;;;18.93;49.29;95012.69;5054048;28;20236;-60
2023/11/16 01:39:41;;;;;;;0.40;0.40;;;20.10;60.20;;;18.87;48.98;95011.78;5037571;28;20196;-62
2023/11/16 01:42:09;;;;;;;0.40;0.40;;;20.10;60.20;;;18.92;49.43;95008.44;5054214;28;20199;-62
2023/11/16 01:44:40;;;;;;;0.40;0.40;;;20.10;60.20;;;18.86;49.00;95007.50;5054833;28;20721;-60
2023/11/16 01:47:08;;;;;;;0.35;0.35;;;20.10;60.30;;;18.91;49.43;95014.78;5070433;28;20290;-61
2023/11/16 01:49:37;;;;;;;0.40;0.40;;;20.10;60.20;;;18.91;49.27;95019.25;5037139;28;20227;-62
2023/11/16 01:52:06;;;;;;;0.30;0.30;;;20.10;60.20;;;18.92;49.48;95013.75;5037373;28;20205;-61
2023/11/16 01:54:35;;;;;;;0.40;0.40;;;20.00;60.10;;;18.91;49.64;95005.97;5037132;28;20199;-61
2023/11/16 01:57:04;;;;;;;0.45;0.45;;;20.00;60.10;;;18.91;49.04;95013.94;5053933;28;20255;-61
2023/11/16 01:59:34;;;;;;;0.50;0.50;;;20.10;60.20;;;18.92;49.38;95010.25;5053431;28;20239;-62
2023/11/16 02:02:05;;;;;;;0.50;0.50;;;20.00;60.20;;;18.91;48.70;95006.81;5035999;28;20253;-63
2023/11/16 02:04:34;;;;;;;0.40;0.40;;;20.10;60.20;;;18.90;49.36;94999.84;5037328;28;20247;-61
2023/11/16 02:07:06;;;;;;;0.40;0.40;;;20.10;60.20;;;18.91;49.46;94996.19;5053673;28;20191;-62
2023/11/16 02:09:33;;;;;;;0.50;0.50;;;20.00;60.20;;;18.87;49.83;94998.50;5054463;28;20600;-60
2023/11/16 02:12:01;;;;;;;0.50;0.50;;;20.00;60.20;;;18.84;49.37;94990.19;5053388;28;20201;-61
2023/11/16 02:14:28;;;;;;;0.40;0.40;;;20.00;60.10;;;18.83;49.60;94988.56;5053518;28;20204;-61
2023/11/16 02:16:56;;;;;;;0.40;0.40;;;20.00;60.10;;;18.91;49.03;95003.31;5053218;28;20202;-61
2023/11/16 02:19:30;;;;;;;0.50;0.50;;;20.00;60.20;;;18.89;49.52;95003.56;5053060;28;20198;-60
2023/11/16 02:22:01;;;;;;;0.50;0.50;;;20.00;60.20;;;18.88;49.36;95005.41;5053826;28;20204;-62
2023/11/16 02:24:30;;;;;;;0.40;0.40;;;20.00;60.20;;;18.88;49.69;95008.06;5036713;28;20650;-61
2023/11/16 02:26:57;;;;;;;0.40;0.40;;;20.00;60.20;;;18.83;49.34;94993.91;5053206;28;20654;-62
2023/11/16 02:29:26;;;;;;;0.40;0.40;;;20.00;60.10;;;18.82;49.60;94998.41;5052786;28;20200;-62
2023/11/16 02:31:53;;;;;;;0.50;0.50;;;20.00;60.20;;;18.87;49.06;95003.81;5052819;28;20299;-61
2023/11/16 02:34:21;;;;;;;0.40;0.40;;;20.00;60.20;;;18.81;49.18;94996.81;5052788;28;20204;-62
2023/11/16 02:36:49;;;;;;;0.40;0.40;;;20.00;60.10;;;18.87;49.60;95002.97;5052904;28;20204;-61
2023/11/16 02:39:16;;;;;;;0.32;0.32;;;20.00;60.10;;;18.86;48.92;94996.88;5069570;28;20204;-61
2023/11/16 02:41:45;;;;;;;0.40;0.40;;;20.00;60.10;;;18.84;49.06;94987.53;5069188;28;20254;-61
2023/11/16 02:44:14;;;;;;;0.40;0.40;;;20.00;60.20;;;18.81;49.66;94986.16;5053007;28;20227;-61
2023/11/16 02:46:42;;;;;;;0.43;0.43;;;20.00;60.10;;;18.89;49.62;94992.94;5036559;28;20210;-61
2023/11/16 02:49:09;;;;;;;0.40;0.40;;;20.00;60.10;;;18.83;49.40;94985.91;5052668;28;20199;-61
2023/11/16 02:51:37;;;;;;;0.40;0.40;;;20.00;60.10;;;18.86;49.34;94988.91;5052728;28;20203;-61
2023/11/16 02:54:06;;;;;;;0.40;0.40;;;20.00;60.20;;;18.85;49.16;94987.28;5052553;28;20204;-61
2023/11/16 02:56:34;;;;;;;0.40;0.40;;;20.00;60.20;;;18.81;49.28;94982.69;5035856;28;20208;-60
2023/11/16 02:59:02;;;;;;;0.40;0.40;;;20.00;60.20;;;18.77;48.96;94974.41;5068888;28;20864;-62
2023/11/16 03:01:32;;;;;;;0.40;0.40;;;20.00;60.10;;;18.87;49.47;94989.69;5052385;28;20205;-63
2023/11/16 03:04:01;;;;;;;0.40;0.40;;;20.00;60.20;;;18.86;49.41;94991.56;5052357;28;20218;-61
2023/11/16 03:06:28;;;;;;;0.40;0.40;;;20.00;60.10;;;18.80;49.03;94978.44;5052454;28;20830;-62
2023/11/16 03:08:56;;;;;;;0.50;0.50;;;20.00;60.10;;;18.87;49.76;94995.00;5052044;28;20598;-61
2023/11/16 03:11:24;;;;;;;0.40;0.40;;;20.00;60.20;;;18.86;49.25;94993.44;5052392;28;20201;-61
2023/11/16 03:13:52;;;;;;;0.40;0.40;;;20.00;60.10;;;18.79;49.46;94987.47;5068561;28;20218;-62
2023/11/16 03:16:21;;;;;;;0.40;0.40;;;20.00;60.20;;;18.79;49.05;94996.22;5051861;28;20192;-62
2023/11/16 03:18:48;;;;;;;0.40;0.40;;;20.00;60.20;;;18.86;49.63;94996.09;5052452;28;20787;-62
2023/11/16 03:21:16;;;;;;;0.50;0.50;;;20.00;60.20;;;18.85;49.67;94994.47;5051743;28;20204;-62
2023/11/16 03:23:44;;;;;;;0.40;0.40;;;20.00;60.20;;;18.85;49.28;94997.13;5051750;28;20229;-60
2023/11/16 03:26:12;;;;;;;0.40;0.40;;;20.00;60.20;;;18.80;49.53;94995.19;5035269;28;20201;-61
2023/11/16 03:28:41;;;;;;;0.40;0.40;;;20.00;60.20;;;18.84;49.75;95004.28;5051921;28;20715;-60
2023/11/16 03:31:13;;;;;;;0.40;0.40;;;20.00;60.20;;;18.85;49.34;95008.53;5051816;28;20203;-61
2023/11/16 03:33:41;;;;;;;0.50;0.50;;;20.00;60.20;;;18.85;49.38;95003.22;5051837;28;20197;-62
2023/11/16 03:36:09;;;;;;;0.45;0.45;;;20.00;60.20;;;18.86;49.39;95004.06;5035041;28;20754;-61
2023/11/16 03:38:36;;;;;;;0.38;0.38;;;20.00;60.20;;;18.85;49.89;95007.75;5035371;28;20213;-60
2023/11/16 03:41:04;;;;;;;0.50;0.50;;;20.00;61.10;;;18.86;49.42;95010.16;5051694;28;20211;-61
2023/11/16 03:43:32;;;;;;;0.47;0.47;;;20.00;61.10;;;18.85;49.17;95008.53;5051617;28;20203;-61
2023/11/16 03:46:00;;;;;;;0.30;0.30;;;20.00;60.20;;;18.87;49.17;95014.44;5035190;28;20196;-60
2023/11/16 03:48:27;;;;;;;0.52;0.52;;;20.00;60.20;;;18.84;49.16;95006.94;5051525;28;20210;-61
2023/11/16 03:50:55;;;;;;;0.40;0.40;;;20.00;60.20;;;18.85;49.20;94995.25;5051592;28;20205;-61
2023/11/16 03:53:22;;;;;;;0.43;0.43;;;20.00;60.20;;;18.87;49.39;95000.31;5051524;28;20296;-61
2023/11/16 03:55:51;;;;;;;0.40;0.40;;;20.00;60.20;;;18.87;49.50;95009.13;5051520;28;20567;-61
2023/11/16 03:58:19;;;;;;;0.50;0.50;;;20.00;60.20;;;18.82;49.62;94993.09;5034500;28;20281;-61
2023/11/16 04:00:48;;;;;;;0.40;0.40;;;20.00;60.20;;;18.83;49.19;94997.34;5051138;28;20556;-61
2023/11/16 04:03:15;;;;;;;0.43;0.43;;;20.00;60.20;;;18.81;49.68;95004.78;5052424;28;20199;-60
2023/11/16 04:05:43;;;;;;;0.43;0.43;;;20.00;60.20;;;18.88;49.33;95009.91;5052481;28;20223;-60
2023/11/16 04:08:10;;;;;;;0.50;0.50;;;20.00;60.20;;;18.89;49.36;95016.84;5051453;28;20203;-61
2023/11/16 04:10:38;;;;;;;0.52;0.52;;;20.00;60.20;;;18.88;49.47;95017.88;5034753;28;20571;-60
2023/11/16 04:13:06;;;;;;;0.40;0.40;;;20.00;60.20;;;18.90;49.18;95015.00;5051388;28;20588;-61
2023/11/16 04:15:33;;;;;;;0.40;0.40;;;20.00;60.20;;;18.82;49.03;95009.03;5034668;28;20203;-61
2023/11/16 04:18:03;;;;;;;0.40;0.40;;;20.00;60.20;;;18.85;49.63;95013.06;5051388;28;20218;-61
2023/11/16 04:20:31;;;;;;;0.47;0.47;;;20.00;60.20;;;18.87;49.46;95014.44;5051133;28;20273;-61
2023/11/16 04:22:59;;;;;;;0.40;0.40;;;20.00;60.20;;;18.78;49.42;94989.28;5067981;28;20211;-62
2023/11/16 04:25:27;;;;;;;0.40;0.40;;;20.00;60.10;;;18.89;49.67;95000.91;5037232;28;20229;-61
2023/11/16 04:28:05;;;;;;;0.40;0.40;;;20.00;60.20;;;18.90;49.56;95009.69;5055202;28;20208;-60
2023/11/16 04:30:34;;;;;;;0.47;0.47;;;20.00;60.10;;;18.90;49.11;95015.00;5040050;28;20195;-61
2023/11/16 04:33:03;;;;;;;0.40;0.40;;;20.00;60.20;;;18.89;49.46;95006.22;5055281;28;20204;-61
2023/11/16 04:35:32;;;;;;;0.40;0.40;;;20.00;60.20;;;18.82;49.30;94997.59;5055152;28;20287;-61
2023/11/16 04:38:03;;;;;;;0.50;0.50;;;20.00;60.10;;;18.89;49.25;95008.88;5056501;28;20229;-61
2023/11/16 04:40:31;;;;;;;0.40;0.40;;;20.00;60.10;;;18.90;49.06;95004.38;5039056;28;20224;-62
2023/11/16 04:42:58;;;;;;;0.40;0.40;;;20.00;60.10;;;18.91;49.48;95011.28;5056167;28;20549;-60
2023/11/16 04:45:26;;;;;;;0.40;0.40;;;20.00;60.20;;;18.88;49.27;95002.75;5071587;28;20228;-60
2023/11/16 04:47:57;;;;;;;0.40;0.40;;;20.00;60.20;;;18.91;49.23;95004.16;5056418;28;20207;-62
2023/11/16 04:50:31;;;;;;;0.40;0.40;;;20.00;60.20;;;18.91;49.44;95005.97;5038696;28;20208;-61
2023/11/16 04:52:59;;;;;;;0.40;0.40;;;20.00;60.20;;;18.84;49.14;94993.66;5039196;28;20192;-63
2023/11/16 04:55:26;;;;;;;0.40;0.40;;;20.00;60.20;;;18.85;49.56;94997.91;5056501;28;20191;-61
2023/11/16 04:57:54;;;;;;;0.52;0.52;;;20.00;60.20;;;18.92;49.41;95008.44;5038046;28;20203;-61
2023/11/16 05:00:21;;;;;;;0.50;0.50;;;20.00;60.20;;;18.93;49.75;95006.56;5054771;28;20282;-60
2023/11/16 05:02:49;;;;;;;0.60;0.60;;;20.10;60.30;;;18.94;49.44;94994.88;5054423;28;20260;-60
2023/11/16 05:05:16;;;;;;;0.45;0.45;;;20.00;60.20;;;18.87;49.52;94989.69;5054472;28;20305;-61
2023/11/16 05:07:45;;;;;;;0.45;0.45;;;20.00;60.20;;;18.87;49.65;94982.53;5054307;28;20675;-61
2023/11/16 05:10:16;;;;;;;0.40;0.40;;;20.10;60.30;;;18.92;49.35;94992.47;5055490;28;20647;-61
2023/11/16 05:12:48;;;;;;;0.40;0.40;;;20.10;60.30;;;18.89;49.29;94982.28;5054833;28;20235;-61
2023/11/16 05:15:16;;;;;;;0.40;0.40;;;20.10;60.20;;;18.85;49.49;94978.53;5054529;28;20197;-62
2023/11/16 05:17:44;;;;;;;0.45;0.45;;;20.10;60.30;;;18.88;49.09;94986.00;5055534;28;20195;-61
2023/11/16 05:20:12;;;;;;;0.40;0.40;;;20.10;60.30;;;18.88;49.41;94984.16;5054249;28;20223;-60
2023/11/16 05:22:39;;;;;;;0.50;0.50;;;20.10;60.30;;;18.94;49.30;95008.97;5054342;28;20219;-61
2023/11/16 05:25:07;;;;;;;0.40;0.40;;;20.10;60.30;;;18.91;49.71;94995.34;5054246;28;20236;-62
2023/11/16 05:27:35;;;;;;;0.32;0.32;;;20.10;60.30;;;18.95;49.43;94999.97;5054316;28;20248;-60
2023/11/16 05:30:03;;;;;;;0.60;0.60;;;20.10;60.20;;;18.97;49.22;95000.53;5055319;28;20200;-60
2023/11/16 05:32:31;;;;;;;0.40;0.40;;;20.10;60.20;;;18.93;49.37;94998.59;5053743;28;20201;-61
2023/11/16 05:34:59;;;;;;;0.40;0.40;;;20.10;60.30;;;18.96;49.70;94998.13;5054092;28;20250;-60
2023/11/16 05:37:26;;;;;;;0.47;0.47;;;20.10;60.20;;;18.96;49.44;94995.47;5054155;28;20193;-61
2023/11/16 05:39:53;;;;;;;0.40;0.40;;;20.10;60.20;;;18.97;49.13;94997.88;5037847;28;20203;-63
2023/11/16 05:42:21;;;;;;;0.40;0.40;;;20.10;60.60;;;18.92;49.77;94989.00;5053825;28;20212;-62
2023/11/16 05:44:49;;;;;;;0.50;0.50;;;20.10;60.20;;;18.97;49.01;94995.22;5037328;28;20340;-61
2023/11/16 05:47:16;;;;;;;0.40;0.40;;;20.10;60.20;;;18.97;49.41;94995.22;5070570;28;20667;-61
2023/11/16 05:49:44;;;;;;;0.40;0.40;;;20.10;60.20;;;18.97;49.22;94995.22;5037452;28;20687;-60
2023/11/16 05:52:11;;;;;;;0.40;0.40;;;20.10;60.20;;;18.93;49.59;94994.09;5054805;28;20196;-61
2023/11/16 05:54:39;;;;;;;0.40;0.40;;;20.10;60.20;;;18.98;49.05;94996.00;5037229;28;20204;-62
2023/11/16 05:57:06;;;;;;;0.40;0.40;;;20.10;60.20;;;18.92;49.50;94984.50;5054706;28;20243;-61
2023/11/16 05:59:34;;;;;;;0.40;0.40;;;20.10;60.20;;;18.97;49.07;95000.53;5036883;28;20289;-62
2023/11/16 06:02:01;;;;;;;0.40;0.40;;;20.10;60.20;;;18.98;49.14;94991.50;5053535;28;20253;-61
2023/11/16 06:04:28;;;;;;;0.50;0.50;;;20.10;60.20;;;18.96;49.63;94993.59;5053339;28;20264;-60
2023/11/16 06:06:56;;;;;;;0.40;0.40;;;20.10;60.20;;;18.96;49.40;94988.28;5054738;28;20192;-61
2023/11/16 06:09:23;;;;;;;0.47;0.47;;;20.10;60.20;;;18.98;49.13;94996.81;5053627;28;20199;-62
2023/11/16 06:11:52;;;;;;;0.40;0.40;;;20.10;60.20;;;18.93;49.29;94985.31;5054773;28;20198;-60
2023/11/16 06:14:22;;;;;;;0.40;0.40;;;20.10;60.20;;;18.92;49.02;94981.84;5053060;28;20209;-61
2023/11/16 06:17:07;;;;;;;0.40;0.40;;;20.10;60.10;;;18.91;49.15;94974.91;5053382;28;20235;-61
2023/11/16 06:19:35;;;;;;;0.40;0.40;;;20.10;60.20;;;18.98;49.32;94994.16;5054459;28;20192;-61
2023/11/16 06:22:03;;;;;;;0.40;0.40;;;20.10;60.10;;;18.95;49.63;94984.00;5052945;28;20215;-62
2023/11/16 06:24:30;;;;;;;0.40;0.40;;;20.10;60.20;;;18.94;48.96;94982.41;5054129;28;20222;-60
2023/11/16 06:26:57;;;;;;;0.60;0.60;;;20.10;60.20;;;18.88;49.54;94970.88;5053186;28;20568;-61
2023/11/16 06:29:25;;;;;;;0.40;0.40;;;20.10;60.20;;;18.99;48.82;94985.16;5054201;28;20210;-61
2023/11/16 06:31:52;;;;;;;0.40;0.40;;;20.10;60.20;;;19.02;49.64;94989.97;5053959;28;20628;-61
2023/11/16 06:34:20;;;;;;;0.45;0.45;;;20.10;60.20;;;18.97;49.51;94968.63;5054120;28;20202;-60
2023/11/16 06:36:48;;;;;;;0.30;0.30;;;20.10;60.20;;;18.99;49.75;94966.53;5053964;28;20322;-62
2023/11/16 06:39:15;;;;;;;0.40;0.40;;;20.10;60.20;;;19.11;49.05;94974.41;5052924;28;20238;-61
2023/11/16 06:41:43;;;;;;;0.40;0.40;;;20.10;60.30;;;19.09;49.40;94959.75;5069430;28;20201;-60
2023/11/16 06:44:10;;;;;;;0.40;0.40;;;20.10;60.40;;;19.23;49.26;94971.66;5052840;28;20197;-60
2023/11/16 06:46:38;;;;;;;0.40;0.40;;;20.20;60.60;;;19.30;49.42;94968.84;5053918;28;20556;-61
2023/11/16 06:49:07;;;;;;;0.30;0.30;;;20.20;60.70;;;19.39;49.61;94964.69;5053649;28;20229;-60
2023/11/16 06:51:35;;;;;;;0.50;0.50;;;20.20;60.80;;;19.50;49.85;94957.66;5052644;28;20668;-61
2023/11/16 06:54:05;;;;;;;0.40;0.40;;;20.30;60.90;;;19.70;49.36;94969.59;5036556;28;20216;-60
2023/11/16 06:56:33;;;;;;;0.40;0.40;;;20.30;61.00;;;19.79;49.85;94955.59;5052596;28;20281;-60
2023/11/16 06:59:03;;;;;;;0.40;0.40;;;20.40;61.10;;;19.98;49.45;94960.63;5053545;28;20233;-59
2023/11/16 07:01:32;;;;;;;0.40;0.40;;;20.50;61.40;;;20.14;49.78;94959.75;5053772;28;20199;-59
2023/11/16 07:04:00;;;;;;;0.45;0.45;;;20.60;61.50;;;20.30;49.64;94957.22;5053751;28;20227;-59
2023/11/16 07:06:29;;;;;;;0.40;0.40;;;20.70;61.40;;;20.46;49.38;94955.50;5053209;28;20348;-60
2023/11/16 07:08:57;;;;;;;0.40;0.40;;;20.80;61.40;;;20.57;49.23;94943.88;5068887;28;20242;-60
2023/11/16 07:11:24;;;;;;;0.30;0.30;;;20.90;61.40;;;20.70;48.84;94939.16;5053411;28;20644;-59
2023/11/16 07:13:52;;;;;;;0.40;0.40;;;21.00;61.30;;;20.90;48.86;94951.91;5052276;28;20568;-60
2023/11/16 07:16:21;;;;;;;0.40;0.40;;;21.20;61.50;;;21.06;48.46;94950.13;5053091;28;20214;-59
2023/11/16 07:18:50;;;;;;;0.30;0.30;;;21.20;61.30;;;21.17;48.65;94951.00;5052082;28;20202;-59
2023/11/16 07:21:18;;;;;;;0.40;0.40;;;21.30;62.20;;;21.31;48.51;94944.13;5053170;28;20203;-59
2023/11/16 07:23:46;;;;;;;0.40;0.40;;;21.50;61.20;;;21.35;48.27;94942.56;5053109;28;20733;-59
2023/11/16 07:26:18;;;;;;;0.38;0.38;;;21.60;61.20;;;21.55;48.07;94954.41;5052935;28;20219;-59
2023/11/16 07:28:47;;;;;;;0.40;0.40;;;21.70;61.10;;;21.64;47.99;94947.53;5036138;28;20260;-58
2023/11/16 07:31:19;;;;;;;0.40;0.40;;;21.80;61.00;;;21.75;48.12;94940.34;5035886;28;20248;-59
2023/11/16 07:33:54;;;;;;;0.40;0.40;;;21.90;60.90;;;21.85;47.62;94945.72;5035327;28;20203;-58
2023/11/16 07:36:25;;;;;;;0.30;0.30;;;22.00;60.80;;;21.95;48.05;94946.81;5052762;28;21092;-60
2023/11/16 07:38:57;;;;;;;0.30;0.30;;;22.10;60.70;;;22.03;47.32;94947.13;5035871;28;20210;-59
2023/11/16 07:41:29;;;;;;;0.40;0.40;;;22.20;61.30;;;22.02;47.55;94937.50;5051894;28;20222;-59
2023/11/16 07:43:57;;;;;;;0.40;0.40;;;22.30;60.50;;;22.16;47.22;94950.34;5052822;28;20203;-58
2023/11/16 07:46:25;;;;;;;0.30;0.30;;;22.30;60.40;;;22.17;46.86;94943.94;5068100;28;20405;-59
2023/11/16 07:48:52;;;;;;;0.30;0.30;;;22.40;60.30;;;22.25;47.08;94948.75;5035144;28;20608;-59
2023/11/16 07:51:20;;;;;;;0.30;0.30;;;22.50;60.20;;;22.24;46.73;94936.47;5052728;28;20214;-58
2023/11/16 07:53:53;;;;;;;0.30;0.30;;;22.50;60.10;;;22.28;46.60;94937.56;5052610;28;20672;-58
2023/11/16 07:56:24;;;;;;;0.30;0.30;;;22.60;60.10;;;22.34;46.44;94946.38;5035673;28;20195;-58
2023/11/16 07:58:52;;;;;;;0.40;0.40;;;22.60;59.90;;;22.34;46.58;94938.38;5050959;28;20235;-58
2023/11/16 08:01:29;;;;;;;0.30;0.30;;;22.60;60.00;;;22.42;46.72;94937.84;5052598;28;20642;-58
2023/11/16 08:03:57;;;;;;;0.30;0.30;;;22.70;60.00;;;22.44;46.61;94927.69;5051605;28;20209;-60
2023/11/16 08:06:25;;;;;;;0.40;0.40;;;22.70;60.00;;;22.47;46.73;94937.88;5052234;28;20216;-58
2023/11/16 08:08:56;;;;;;;0.32;0.32;;;22.70;60.00;;;22.47;46.47;94932.53;5051951;28;20214;-59
2023/11/16 08:11:24;;;;;;;0.30;0.30;;;22.70;60.00;;;22.51;46.61;94928.25;5051655;28;20288;-58
2023/11/16 08:13:52;;;;;;;0.30;0.30;;;22.70;59.90;;;22.46;46.70;94912.22;5052477;28;20506;-58
2023/11/16 08:16:22;;;;;;;0.40;0.40;;;22.70;59.90;;;22.50;46.22;94923.16;5051066;28;20207;-60
2023/11/16 08:18:52;;;;;;;0.40;0.40;;;22.80;59.90;;;22.59;46.25;94924.22;5035457;28;20221;-59
2023/11/16 08:21:20;;;;;;;0.30;0.30;;;22.80;59.90;;;22.56;46.18;94911.41;5035072;28;20310;-58
2023/11/16 08:23:48;;;;;;;0.38;0.38;;;22.80;59.90;;;22.64;45.96;94924.25;5052204;28;20198;-59
2023/11/16 08:26:19;;;;;;;0.40;0.40;;;22.80;59.80;;;22.73;46.17;94923.69;5051120;28;20246;-59
2023/11/16 08:28:49;;;;;;;0.38;0.38;;;22.90;60.20;;;22.80;46.16;94938.41;5035212;28;20209;-59
2023/11/16 08:31:17;;;;;;;0.30;0.30;;;22.90;60.00;;;22.90;46.03;94934.09;5052332;28;20222;-58
2023/11/16 08:33:46;;;;;;;0.35;0.35;;;22.90;59.90;;;22.99;45.92;94927.16;5051176;28;20219;-58
2023/11/16 08:36:15;;;;;;;0.30;0.30;;;23.00;60.10;;;23.11;45.66;94933.00;5052082;28;20255;-59
2023/11/16 08:38:45;;;;;;;0.32;0.32;;;23.00;60.00;;;23.22;45.67;94917.78;5034920;28;20291;-58
2023/11/16 08:41:16;;;;;;;0.30;0.30;;;23.10;60.00;;;23.32;45.88;94916.94;5051058;28;20267;-57
2023/11/16 08:43:51;;;;;;;0.40;0.40;;;23.10;60.00;;;23.43;45.46;94912.34;5050991;28;20596;-58
2023/11/16 08:46:30;;;;;;;0.40;0.40;;;23.20;59.60;;;23.53;45.39;94914.97;5050584;28;20212;-58
2023/11/16 08:48:59;;;;;;;0.40;0.40;;;23.30;60.00;;;23.65;45.66;94912.00;5052766;28;20256;-58
2023/11/16 08:51:28;;;;;;;0.30;0.30;;;23.40;59.90;;;23.77;45.04;94912.47;5051138;28;20697;-58
2023/11/16 08:53:56;;;;;;;0.40;0.40;;;23.40;59.90;;;23.90;44.93;94902.22;5050810;28;20280;-55
2023/11/16 08:56:27;;;;;;;0.40;0.40;;;23.50;59.90;;;24.04;44.73;94897.88;5034429;28;20245;-54
2023/11/16 08:59:07;;;;;;;0.30;0.30;;;23.60;59.80;;;24.16;44.58;94894.06;5050670;28;20275;-53
2023/11/16 09:01:37;;;;;;;0.30;0.30;;;23.70;59.80;;;24.25;44.42;94913.84;5067616;28;20209;-56
2023/11/16 09:04:11;;;;;;;0.30;0.30;;;23.80;59.50;;;24.29;44.37;94902.28;5035067;28;20211;-58
2023/11/16 09:06:41;;;;;;;0.30;0.30;;;23.90;59.40;;;24.30;44.20;94903.91;5034823;28;20228;-54
2023/11/16 09:09:33;;;;;;;0.30;0.30;;;23.90;59.10;;;24.29;43.68;94906.84;5050667;28;20288;-52
2023/11/16 09:11:57;;;;;;;0.40;0.40;;;24.00;58.90;;;24.25;43.69;94903.13;5056666;28;20585;-54
2023/11/16 09:14:24;;;;;;;0.50;0.50;;;24.00;58.60;;;24.23;43.72;94903.41;5037629;28;20248;-57
2023/11/16 09:17:02;;;;;;;0.30;0.30;;;24.10;58.50;;;24.17;43.56;94887.63;5038223;28;20213;-55
2023/11/16 09:19:40;;;;;;;0.30;0.30;;;24.10;58.30;;;24.17;43.59;94895.66;5054386;28;20214;-55
2023/11/16 09:22:09;;;;;;;0.30;0.30;;;24.10;58.10;;;24.14;43.59;94895.16;5038053;28;20197;-57
2023/11/16 09:24:39;;;;;;;0.30;0.30;;;24.10;58.00;;;24.12;43.53;94901.84;5037663;28;20652;-57
2023/11/16 09:27:07;;;;;;;0.40;0.40;;;24.10;57.90;;;24.00;43.67;94883.47;5055465;28;20560;-57
2023/11/16 09:29:38;;;;;;;0.40;0.40;;;24.10;57.80;;;24.04;43.56;94891.75;5037757;28;20205;-58
2023/11/16 09:32:11;;;;;;;0.32;0.32;;;24.10;57.70;;;23.99;43.40;94889.88;5038266;28;20301;-59
2023/11/16 09:34:39;;;;;;;0.40;0.40;;;24.10;57.70;;;23.96;43.47;94879.72;5037726;28;20198;-58
2023/11/16 09:37:08;;;;;;;0.35;0.35;;;24.00;57.60;;;23.92;43.64;94884.00;5070760;28;20214;-58
2023/11/16 09:39:37;;;;;;;0.30;0.30;;;24.00;57.60;;;23.88;43.20;94878.41;5054100;28;20206;-58
2023/11/16 09:42:12;;;;;;;0.38;0.38;;;24.00;57.50;;;23.85;43.41;94878.16;5054180;28;20288;-58
2023/11/16 09:44:52;;;;;;;0.40;0.40;;;24.00;57.30;;;23.78;43.34;94873.13;5038044;28;20207;-60
2023/11/16 09:47:26;;;;;;;0.30;0.30;;;23.90;57.30;;;23.75;43.43;94868.28;5054190;28;20215;-58
2023/11/16 09:49:58;;;;;;;0.30;0.30;;;23.90;57.30;;;23.71;43.49;94853.88;5038260;28;20601;-57
2023/11/16 09:52:33;;;;;;;0.40;0.40;;;23.80;57.30;;;23.66;43.17;94855.47;5053740;28;20208;-59
2023/11/16 09:55:03;;;;;;;0.30;0.30;;;23.80;57.10;;;23.65;43.57;94853.88;5054927;28;20187;-59
2023/11/16 09:57:35;;;;;;;0.40;0.40;;;23.80;57.30;;;23.63;43.53;94849.88;5054852;28;20284;-59
2023/11/16 10:00:14;;;;;;;0.30;0.30;;;23.80;57.40;;;23.61;43.66;94847.47;5055018;28;20232;-59
2023/11/16 10:02:46;;;;;;;0.40;0.40;;;23.70;57.30;;;23.59;43.42;94836.25;5053421;28;20208;-59
2023/11/16 10:05:34;;;;;;;0.40;0.40;;;23.70;57.30;;;23.57;43.23;94833.06;5036958;28;20237;-58
2023/11/16 10:08:14;;;;;;;0.40;0.40;;;23.70;57.10;;;23.58;43.64;94833.84;5054876;28;20554;-58
2023/11/16 10:10:55;;;;;;;0.40;0.40;;;23.70;57.30;;;23.54;43.63;94833.59;5053817;28;20201;-59
2023/11/16 10:13:27;;;;;;;0.32;0.32;;;23.70;57.30;;;23.52;43.47;94830.38;5053514;28;20204;-59
2023/11/16 10:16:03;;;;;;;0.40;0.40;;;23.70;57.40;;;23.48;43.53;94819.44;5053240;28;20201;-59
2023/11/16 10:18:32;;;;;;;0.30;0.30;;;23.70;57.10;;;23.44;43.28;94809.56;5054353;28;20188;-59
2023/11/16 10:21:05;;;;;;;0.40;0.40;;;23.60;57.20;;;23.42;43.80;94809.03;5053608;28;20213;-59
2023/11/16 10:23:33;;;;;;;0.30;0.30;;;23.70;57.20;;;23.38;43.61;94810.69;5053812;28;20715;-62
2023/11/16 10:26:05;;;;;;;0.30;0.30;;;23.60;57.00;;;23.30;43.87;94796.78;5053244;28;20618;-59
2023/11/16 10:28:35;;;;;;;0.40;0.40;;;23.60;57.10;;;23.28;43.27;94788.22;5036909;28;20616;-61